Time;durP1;ratioP1;P1;durP2;ratioP2;P2;SDS_P1;SDS_P2;PMS_P1;PMS_P2;Temp;Humidity;BMP_temperature;BMP_pressure;BME280_temperature;BME280_humidity;BME280_pressure;Samples;Min_cycle;Max_cycle;Signal;HPM_P1;HPM_P2
2023/06/20 00:01:00;;;;;;;7.23;5.80;;;23.50;80.10;;;;;;20832264;28;20243;-61
2023/06/20 00:11:02;;;;;;;8.93;6.00;;;23.50;80.90;;;;;;20832097;28;20295;-61
2023/06/20 00:21:04;;;;;;;6.20;5.60;;;23.40;81.70;;;;;;20830712;28;20600;-61
2023/06/20 00:31:06;;;;;;;6.73;5.57;;;23.30;82.20;;;;;;20830618;28;20662;-61
2023/06/20 00:41:07;;;;;;;8.20;6.20;;;23.30;82.70;;;;;;20829998;28;20255;-63
2023/06/20 00:51:10;;;;;;;8.90;5.97;;;23.30;83.20;;;;;;20829556;28;20291;-64
2023/06/20 01:01:12;;;;;;;6.80;5.93;;;23.20;83.80;;;;;;20843119;28;20263;-66
2023/06/20 01:11:33;;;;;;;7.20;6.20;;;23.10;84.60;;;;;;20846208;28;20212;-68
2023/06/20 01:21:42;;;;;;;6.43;5.70;;;23.20;85.20;;;;;;20845759;28;20264;-65
2023/06/20 01:31:52;;;;;;;8.40;5.80;;;23.10;85.60;;;;;;20845502;28;20660;-61
2023/06/20 01:41:59;;;;;;;6.70;5.93;;;23.10;86.30;;;;;;20844229;28;20575;-60
2023/06/20 01:52:02;;;;;;;6.70;5.87;;;23.10;86.60;;;;;;20858482;28;20216;-60
2023/06/20 02:02:05;;;;;;;6.23;5.50;;;23.10;87.20;;;;;;20841706;28;20323;-64
2023/06/20 02:12:08;;;;;;;8.03;6.90;;;23.20;87.10;;;;;;20840093;28;20215;-61
2023/06/20 02:22:13;;;;;;;9.13;7.17;;;23.10;89.80;;;;;;20840260;28;20242;-60
2023/06/20 02:32:17;;;;;;;8.90;7.60;;;22.70;91.80;;;;;;20839369;28;20720;-60
2023/06/20 02:42:19;;;;;;;9.30;8.00;;;21.90;95.20;;;;;;20838290;28;20244;-61
2023/06/20 02:52:52;;;;;;;10.93;8.30;;;21.80;97.20;;;;;;20837941;28;20201;-74
2023/06/20 03:03:11;;;;;;;12.87;9.00;;;21.60;98.90;;;;;;20836946;28;20235;-60
2023/06/20 03:13:16;;;;;;;14.40;8.70;;;21.60;99.90;;;;;;20836287;28;20216;-65
2023/06/20 03:23:18;;;;;;;13.40;8.77;;;21.70;99.90;;;;;;20834535;28;20232;-73
2023/06/20 03:33:19;;;;;;;12.13;9.13;;;21.80;99.90;;;;;;20834556;28;20653;-62
2023/06/20 03:43:21;;;;;;;12.83;9.23;;;21.90;99.90;;;;;;20833651;28;20245;-61
2023/06/20 03:53:23;;;;;;;10.53;9.10;;;21.90;99.90;;;;;;20833242;28;20209;-61
2023/06/20 04:03:24;;;;;;;12.23;9.67;;;22.00;99.90;;;;;;20832496;28;20692;-67
2023/06/20 04:13:27;;;;;;;11.60;8.80;;;22.00;99.90;;;;;;20832151;28;20303;-62
2023/06/20 04:23:29;;;;;;;12.07;9.50;;;22.00;99.90;;;;;;20832490;28;20267;-66
2023/06/20 04:33:32;;;;;;;11.23;9.27;;;22.00;99.90;;;;;;20831436;28;20291;-61
2023/06/20 04:43:33;;;;;;;11.77;9.37;;;21.90;99.90;;;;;;20845743;28;20279;-61
2023/06/20 04:53:37;;;;;;;14.20;9.63;;;21.90;99.90;;;;;;20829570;28;20211;-64
2023/06/20 05:03:38;;;;;;;10.97;9.43;;;22.00;99.90;;;;;;20829073;28;20319;-67
2023/06/20 05:13:40;;;;;;;13.90;9.63;;;22.20;99.90;;;;;;20828742;28;20287;-64
2023/06/20 05:23:42;;;;;;;13.60;9.87;;;22.40;99.90;;;;;;20827989;28;20319;-60
2023/06/20 05:33:44;;;;;;;16.33;10.17;;;22.50;99.90;;;;;;20826639;28;20241;-69
2023/06/20 05:43:46;;;;;;;13.33;10.17;;;22.60;99.90;;;;;;20832513;28;20734;-65
2023/06/20 05:53:47;;;;;;;19.23;9.63;;;22.90;99.90;;;;;;20841671;28;20228;-61
2023/06/20 06:03:49;;;;;;;11.40;9.83;;;23.20;99.90;;;;;;20839604;28;20275;-61
2023/06/20 06:13:51;;;;;;;14.40;10.50;;;23.30;99.90;;;;;;20839447;28;20543;-68
2023/06/20 06:23:53;;;;;;;9.77;8.43;;;23.70;99.90;;;;;;20839209;28;20300;-63
2023/06/20 06:33:59;;;;;;;10.90;8.40;;;23.90;99.90;;;;;;20838348;28;20611;-68
2023/06/20 06:44:04;;;;;;;13.00;8.77;;;24.20;99.90;;;;;;20837310;28;20240;-63
2023/06/20 06:54:06;;;;;;;9.77;8.73;;;;;;;;;;20838366;28;20212;-60
2023/06/20 07:04:08;;;;;;;11.27;8.70;;;;;;;;;;20836299;28;20718;-60
2023/06/20 07:14:10;;;;;;;12.30;8.43;;;;;;;;;;20837693;28;20291;-72
2023/06/20 07:24:13;;;;;;;10.13;8.33;;;;;;;;;;20843703;28;20287;-71
2023/06/20 07:34:15;;;;;;;11.40;8.37;;;;;;;;;;20833578;28;20303;-73
2023/06/20 07:44:17;;;;;;;8.77;7.80;;;;;;;;;;20833119;28;20244;-64
2023/06/20 07:54:19;;;;;;;9.87;8.10;;;;;;;;;;20832767;28;20201;-65
2023/06/20 08:04:21;;;;;;;10.47;6.40;;;25.30;99.00;;;;;;20830607;28;20236;-61
2023/06/20 08:14:23;;;;;;;8.50;6.30;;;25.70;98.00;;;;;;20831770;28;20215;-65
2023/06/20 08:24:24;;;;;;;8.57;5.70;;;25.80;97.20;;;;;;20830812;28;20275;-60
2023/06/20 08:34:26;;;;;;;8.80;5.87;;;26.10;96.30;;;;;;20829556;28;20211;-60
2023/06/20 08:44:28;;;;;;;7.53;6.40;;;26.20;95.60;;;;;;20828865;28;20306;-66
2023/06/20 08:54:39;;;;;;;6.40;5.40;;;26.20;94.80;;;;;;20827457;28;20209;-60
2023/06/20 09:04:41;;;;;;;9.90;5.93;;;26.30;94.10;;;;;;20843364;28;20322;-65
2023/06/20 09:14:46;;;;;;;9.67;5.73;;;26.70;92.90;;;;;;20828898;28;20296;-61
2023/06/20 09:24:48;;;;;;;6.30;5.73;;;26.80;92.30;;;;;;20844423;28;20368;-67
2023/06/20 09:34:51;;;;;;;6.30;5.70;;;27.00;91.40;;;;;;20843476;28;20548;-61
2023/06/20 09:44:53;;;;;;;8.00;6.20;;;27.10;90.70;;;;;;20842754;28;20241;-65
2023/06/20 09:55:02;;;;;;;8.10;6.00;;;27.20;89.60;;;;;;20842738;28;20201;-67
2023/06/20 10:05:05;;;;;;;7.53;5.90;;;27.50;88.60;;;;;;20844182;28;20275;-67
2023/06/20 10:15:09;;;;;;;7.00;6.30;;;27.50;88.00;;;;;;20850936;28;20232;-61
2023/06/20 10:25:15;;;;;;;8.10;5.63;;;27.70;85.60;;;;;;20839869;28;20286;-66
2023/06/20 10:35:17;;;;;;;7.53;6.10;;;28.00;84.20;;;;;;20838579;28;20215;-72
2023/06/20 10:45:19;;;;;;;6.05;5.45;;;28.30;82.50;;;;;;20838424;28;20240;-60
2023/06/20 10:55:22;;;;;;;9.80;5.70;;;28.50;80.80;;;;;;20837241;28;20200;-61
2023/06/20 11:05:26;;;;;;;5.97;5.47;;;28.80;78.40;;;;;;20836575;28;20246;-66
2023/06/20 11:15:33;;;;;;;6.88;5.95;;;28.90;74.90;;;;;;20835444;28;20292;-67
2023/06/20 11:25:37;;;;;;;5.95;5.45;;;29.00;72.10;;;;;;20834494;28;20239;-63
2023/06/20 11:35:43;;;;;;;6.53;5.60;;;29.00;70.90;;;;;;20849154;28;20276;-71
2023/06/20 11:45:45;;;;;;;7.90;5.53;;;29.20;70.00;;;;;;20831349;28;20243;-72
2023/06/20 11:55:49;;;;;;;7.00;5.93;;;29.10;69.70;;;;;;20831679;28;20295;-71
2023/06/20 12:05:51;;;;;;;6.40;5.70;;;29.50;68.00;;;;;;20832125;28;20268;-59
2023/06/20 12:15:54;;;;;;;7.85;6.15;;;29.70;66.30;;;;;;20831309;28;20295;-60
2023/06/20 12:25:57;;;;;;;7.75;5.90;;;29.90;65.20;;;;;;20830384;28;20232;-60
2023/06/20 12:35:59;;;;;;;5.60;4.95;;;30.30;63.30;;;;;;20830079;28;20215;-70
2023/06/20 12:46:01;;;;;;;7.05;5.25;;;30.60;59.80;;;;;;20829007;28;20241;-66
2023/06/20 12:56:03;;;;;;;5.82;4.82;;;30.60;57.80;;;;;;20828122;28;20216;-65
2023/06/20 13:06:05;;;;;;;7.75;5.45;;;30.40;57.30;;;;;;20828322;28;20787;-69
2023/06/20 13:16:12;;;;;;;5.70;5.10;;;30.60;56.50;;;;;;20828097;28;20212;-63
2023/06/20 13:26:14;;;;;;;7.20;4.90;;;30.70;56.00;;;;;;20827729;28;20258;-67
2023/06/20 13:36:15;;;;;;;5.25;4.75;;;30.90;55.10;;;;;;20827590;28;20672;-65
2023/06/20 13:46:20;;;;;;;5.30;4.80;;;31.00;54.20;;;;;;20826634;28;20247;-65
2023/06/20 13:56:22;;;;;;;5.85;4.63;;;31.20;53.10;;;;;;20841899;28;20215;-72
2023/06/20 14:06:24;;;;;;;4.72;4.32;;;31.30;52.50;;;;;;20834185;28;20255;-71
2023/06/20 14:16:26;;;;;;;8.32;4.25;;;31.50;51.50;;;;;;20844131;28;20308;-64
2023/06/20 14:26:31;;;;;;;4.85;4.40;;;31.80;50.80;;;;;;20880367;28;20815;-70
2023/06/20 14:36:35;;;;;;;7.10;4.10;;;33.20;48.60;;;;;;20883196;28;20225;-67
2023/06/20 14:46:36;;;;;;;6.10;5.10;;;33.20;48.20;;;;;;20837377;28;20233;-62
2023/06/20 14:56:38;;;;;;;14.52;4.95;;;33.80;46.70;;;;;;20897720;28;20278;-66
2023/06/20 15:06:42;;;;;;;6.00;4.50;;;34.00;46.30;;;;;;20915754;28;20269;-66
2023/06/20 15:16:43;;;;;;;9.30;4.78;;;34.90;45.30;;;;;;20916438;28;20200;-70
2023/06/20 15:26:45;;;;;;;5.07;4.57;;;35.30;44.50;;;;;;20887231;28;20263;-67
2023/06/20 15:36:47;;;;;;;6.90;4.80;;;35.30;44.20;;;;;;20834183;28;20228;-64
2023/06/20 15:46:51;;;;;;;7.35;5.13;;;34.70;44.70;;;;;;20834548;28;20240;-69
2023/06/20 15:56:55;;;;;;;12.63;5.05;;;34.10;45.10;;;;;;20842692;28;20600;-67
2023/06/20 16:06:56;;;;;;;5.55;4.55;;;35.60;43.60;;;;;;20832201;28;20243;-77
2023/06/20 16:16:58;;;;;;;5.18;4.68;;;36.30;42.60;;;;;;20831402;28;20287;-66
2023/06/20 16:27:00;;;;;;;9.18;4.60;;;36.00;42.60;;;;;;20861821;28;20227;-66
2023/06/20 16:37:02;;;;;;;7.43;4.55;;;37.00;41.30;;;;;;20912567;28;20231;-65
2023/06/20 16:47:04;;;;;;;8.57;4.60;;;35.00;42.70;;;;;;20912165;28;20263;-65
2023/06/20 16:57:07;;;;;;;6.63;4.78;;;33.60;44.10;;;;;;20910536;28;20200;-69
2023/06/20 17:07:08;;;;;;;9.88;4.70;;;32.90;45.20;;;;;;20911834;28;20270;-70
2023/06/20 17:17:10;;;;;;;8.07;4.88;;;32.90;45.70;;;;;;20911220;28;20207;-68
2023/06/20 17:27:12;;;;;;;26.40;5.40;;;32.80;46.50;;;;;;20877591;28;20327;-68
2023/06/20 17:37:18;;;;;;;41.38;6.20;;;32.40;48.80;;;;;;20828440;28;20228;-68
2023/06/20 17:47:20;;;;;;;12.45;5.97;;;31.30;51.70;;;;;;20843033;28;20258;-69
2023/06/20 17:57:22;;;;;;;12.50;5.43;;;30.40;53.50;;;;;;20842471;28;20747;-72
2023/06/20 18:07:24;;;;;;;18.60;5.70;;;29.70;56.00;;;;;;20841910;28;20236;-67
2023/06/20 18:17:26;;;;;;;13.27;5.43;;;29.60;55.70;;;;;;20841399;28;21013;-68
2023/06/20 18:27:27;;;;;;;11.80;5.60;;;29.30;56.60;;;;;;20873327;28;20238;-63
2023/06/20 18:37:29;;;;;;;9.38;5.65;;;29.00;57.40;;;;;;20920362;28;20624;-62
2023/06/20 18:47:31;;;;;;;10.00;5.90;;;28.70;58.30;;;;;;20847460;28;20323;-63
2023/06/20 18:57:33;;;;;;;10.52;6.07;;;28.60;59.50;;;;;;20836152;28;20652;-67
2023/06/20 19:07:34;;;;;;;7.20;5.32;;;28.40;59.80;;;;;;20835504;28;20242;-64
2023/06/20 19:17:36;;;;;;;11.35;6.60;;;28.30;60.50;;;;;;20832735;28;20239;-63
2023/06/20 19:27:44;;;;;;;14.90;7.05;;;28.20;61.40;;;;;;20870668;28;20568;-67
2023/06/20 19:37:46;;;;;;;16.85;9.43;;;28.10;62.90;;;;;;20937060;28;20318;-63
2023/06/20 19:47:48;;;;;;;14.43;6.10;;;28.00;63.40;;;;;;20965414;28;20231;-65
2023/06/20 19:57:50;;;;;;;10.70;5.83;;;27.90;65.30;;;;;;20932069;28;20204;-68
2023/06/20 20:07:52;;;;;;;10.30;6.20;;;27.80;66.60;;;;;;20917621;28;20270;-69
2023/06/20 20:17:54;;;;;;;8.77;7.27;;;27.60;69.50;;;;;;20994282;28;20207;-69
2023/06/20 20:27:56;;;;;;;11.60;7.63;;;27.30;73.60;;;;;;20993816;28;20227;-69
2023/06/20 20:37:59;;;;;;;12.37;7.23;;;27.10;76.40;;;;;;20988306;28;20265;-69
2023/06/20 20:48:01;;;;;;;8.60;3.03;;;26.70;79.50;;;;;;20946457;28;20227;-67
2023/06/20 20:58:02;;;;;;;4.73;2.00;;;23.30;96.70;;;;;;20962216;28;20273;-64
2023/06/20 21:08:04;;;;;;;2.63;1.50;;;20.80;99.90;;;;;;20909841;28;20234;-65
2023/06/20 21:18:06;;;;;;;5.70;2.50;;;20.20;99.90;;;;;;20976166;28;20205;-67
2023/06/20 21:28:10;;;;;;;4.70;2.20;;;20.60;99.90;;;;;;20963869;28;20247;-65
2023/06/20 21:38:12;;;;;;;5.43;1.97;;;20.90;99.90;;;;;;20887140;28;20248;-68
2023/06/20 21:48:14;;;;;;;7.20;1.77;;;21.00;99.90;;;;;;20882569;28;20235;-69
2023/06/20 21:58:16;;;;;;;3.97;2.10;;;21.20;99.90;;;;;;20883201;28;20296;-66
2023/06/20 22:08:19;;;;;;;3.20;1.70;;;21.40;99.90;;;;;;20878009;28;20243;-68
2023/06/20 22:18:21;;;;;;;3.13;1.97;;;21.50;99.90;;;;;;20875032;28;20232;-69
2023/06/20 22:28:23;;;;;;;6.63;2.00;;;21.60;99.90;;;;;;20879157;28;20664;-69
2023/06/20 22:38:25;;;;;;;3.10;1.60;;;21.80;99.90;;;;;;20874639;28;20239;-66
2023/06/20 22:48:27;;;;;;;5.43;1.80;;;21.80;99.90;;;;;;20876548;28;20240;-68
2023/06/20 22:58:28;;;;;;;5.57;2.00;;;21.80;99.90;;;;;;20837985;28;20213;-67
2023/06/20 23:08:30;;;;;;;3.53;1.90;;;21.90;99.90;;;;;;20837101;28;20232;-66
2023/06/20 23:18:32;;;;;;;2.00;1.50;;;22.00;99.90;;;;;;20837016;28;20564;-69
2023/06/20 23:28:34;;;;;;;6.77;1.80;;;22.00;99.90;;;;;;20835641;28;20228;-68
2023/06/20 23:38:36;;;;;;;4.23;2.00;;;21.90;99.90;;;;;;20854434;28;20279;-65
2023/06/20 23:48:38;;;;;;;5.47;1.93;;;22.00;99.90;;;;;;20870655;28;20279;-67
2023/06/20 23:58:39;;;;;;;3.47;1.90;;;21.90;99.90;;;;;;20845404;28;20310;-68
